Orlando, Florida
Traffic Map
Current Weather Conditions
Orlando, Florida
Overcast Light Rain
Overcast
26°
Feels Like: 27°
Wind Chill: 26° Ceiling: 2900
Heat Index: 27° Visibility: 5mi
Dew Point: 23° Wind: 8mph
Humidity: 87% Direction: 70° (ENE)
Pressure: 29.92in Gusts: 0mph
Raw Report DataKORL 012039Z 07007KT 5SM -RA BR SCT017 OVC029 26/23 A2992 RMK AO2 RAB18 P0010 T02560233
Traffic Incident Summary
Active as of:
Severity:
Category:
InformationThere was an issue retrieving the traffic information for this location. Please try a different location or try again shortly.
Advertisements
Track Severe Weather on mobile